createdAt,value
2023-02-21T00:00:32.902Z,8.40
2023-02-21T00:03:18.366Z,8.30
2023-02-21T00:06:03.872Z,8.40
2023-02-21T00:08:49.234Z,8.40
2023-02-21T00:11:34.714Z,8.40
2023-02-21T00:14:20.143Z,8.40
2023-02-21T00:17:05.596Z,8.40
2023-02-21T00:19:51.094Z,8.40
2023-02-21T00:22:36.431Z,8.40
2023-02-21T00:25:21.890Z,8.40
2023-02-21T00:28:07.420Z,8.40
2023-02-21T00:30:53.078Z,8.30
2023-02-21T00:33:38.384Z,8.40
2023-02-21T00:36:23.930Z,8.30
2023-02-21T00:39:09.476Z,8.30
2023-02-21T00:41:54.874Z,8.30
2023-02-21T00:44:40.348Z,8.40
2023-02-21T00:47:25.793Z,8.30
2023-02-21T00:50:11.100Z,8.30
2023-02-21T00:52:56.702Z,8.30
2023-02-21T00:55:42.015Z,8.30
2023-02-21T00:58:27.460Z,8.30
2023-02-21T01:01:13.207Z,8.30
2023-02-21T01:03:58.667Z,8.30
2023-02-21T01:06:44.018Z,8.30
2023-02-21T01:09:29.312Z,8.30
2023-02-21T01:12:14.871Z,8.30
2023-02-21T01:15:00.457Z,8.30
2023-02-21T01:17:45.609Z,8.30
2023-02-21T01:20:31.245Z,8.30
2023-02-21T01:23:16.713Z,8.30
2023-02-21T01:26:02.203Z,8.30
2023-02-21T01:28:47.493Z,8.30
2023-02-21T01:31:37.481Z,8.30
2023-02-21T01:34:23.002Z,8.30
2023-02-21T01:37:08.597Z,8.30
2023-02-21T01:39:53.861Z,8.30
2023-02-21T01:42:39.516Z,8.30
2023-02-21T01:45:50.773Z,8.30
2023-02-21T01:48:39.902Z,8.30
2023-02-21T01:51:27.281Z,8.30
2023-02-21T01:54:13.176Z,8.30
2023-02-21T01:56:59.248Z,8.30
2023-02-21T01:59:44.645Z,8.30
2023-02-21T02:02:53.387Z,8.30
2023-02-21T02:05:39.805Z,8.20
2023-02-21T02:08:25.363Z,8.30
2023-02-21T02:11:45.391Z,8.30
2023-02-21T02:14:39.710Z,8.30
2023-02-21T02:17:45.311Z,8.30
2023-02-21T02:20:20.737Z,8.20
2023-02-21T02:23:01.628Z,8.30
2023-02-21T02:25:39.536Z,8.30
2023-02-21T02:28:36.526Z,8.30
2023-02-21T02:31:18.734Z,8.30
2023-02-21T02:33:57.839Z,8.20
2023-02-21T02:36:34.594Z,8.20
2023-02-21T02:39:26.351Z,8.20
2023-02-21T02:42:29.006Z,8.20
2023-02-21T02:45:05.352Z,8.10
2023-02-21T02:47:37.131Z,8.10
2023-02-21T02:50:06.843Z,8.20
2023-02-21T02:52:34.926Z,8.10
2023-02-21T02:55:04.918Z,8.10
2023-02-21T02:57:41.073Z,8.10
2023-02-21T03:00:10.777Z,8.10
2023-02-21T03:02:42.018Z,8.10
2023-02-21T03:05:19.838Z,8.10
2023-02-21T03:08:12.887Z,8.10
2023-02-21T03:10:53.250Z,8.10
2023-02-21T03:13:37.836Z,8.10
2023-02-21T03:16:10.289Z,8.20
2023-02-21T03:18:45.833Z,8.10
2023-02-21T03:21:18.692Z,8.20
2023-02-21T03:23:48.317Z,8.20
2023-02-21T03:26:16.945Z,8.10
2023-02-21T03:28:44.737Z,8.10
2023-02-21T03:31:14.539Z,8.10
2023-02-21T03:33:41.569Z,8.10
2023-02-21T03:36:09.297Z,8.10
2023-02-21T03:38:36.113Z,8.10
2023-02-21T03:41:02.919Z,8.10
2023-02-21T03:43:29.672Z,8.20
2023-02-21T03:45:56.343Z,8.20
2023-02-21T03:48:31.457Z,8.10
2023-02-21T03:50:59.040Z,8.10
2023-02-21T03:53:25.718Z,8.20
2023-02-21T03:55:52.331Z,8.10
2023-02-21T03:58:19.355Z,8.20
2023-02-21T04:00:45.942Z,8.10
2023-02-21T04:03:13.653Z,8.10
2023-02-21T04:05:40.302Z,8.10
2023-02-21T04:08:07.233Z,8.10
2023-02-21T04:10:37.839Z,8.10
2023-02-21T04:13:04.919Z,8.10
2023-02-21T04:15:31.554Z,8.10
2023-02-21T04:17:58.255Z,8.10
2023-02-21T04:20:24.961Z,8.00
2023-02-21T04:23:02.696Z,8.10
2023-02-21T04:25:30.585Z,8.10
2023-02-21T04:27:57.333Z,8.10
2023-02-21T04:30:24.793Z,8.00
2023-02-21T04:32:51.510Z,8.00
2023-02-21T04:35:18.547Z,8.00
2023-02-21T04:37:45.397Z,8.00
2023-02-21T04:40:12.489Z,8.00
2023-02-21T04:42:39.196Z,8.00
2023-02-21T04:45:06.278Z,8.00
2023-02-21T04:47:32.868Z,8.00
2023-02-21T04:49:59.451Z,8.00
2023-02-21T04:52:26.199Z,8.00
2023-02-21T04:54:52.881Z,8.00
2023-02-21T04:57:19.528Z,7.90
2023-02-21T04:59:46.144Z,8.00
2023-02-21T05:02:13.212Z,8.00
2023-02-21T05:04:39.834Z,7.90
2023-02-21T05:07:06.650Z,8.00
2023-02-21T05:09:33.310Z,8.00
2023-02-21T05:12:00.113Z,8.00
2023-02-21T05:14:26.735Z,8.00
2023-02-21T05:16:53.510Z,8.00
2023-02-21T05:19:27.207Z,8.00
2023-02-21T05:21:59.287Z,8.00
2023-02-21T05:24:28.008Z,7.90
2023-02-21T05:26:55.003Z,8.00
2023-02-21T05:29:22.060Z,8.00
2023-02-21T05:31:49.053Z,8.00
2023-02-21T05:34:17.545Z,8.10
2023-02-21T05:36:44.396Z,8.00
2023-02-21T05:39:11.501Z,8.00
2023-02-21T05:41:38.132Z,8.00
2023-02-21T05:44:05.386Z,8.00
2023-02-21T05:46:34.197Z,8.00
2023-02-21T05:49:02.862Z,8.00
2023-02-21T05:51:35.451Z,8.00
2023-02-21T05:54:02.257Z,8.00
2023-02-21T05:56:28.863Z,8.00
2023-02-21T05:58:55.568Z,8.00
2023-02-21T06:01:22.185Z,8.00
2023-02-21T06:03:48.772Z,8.00
2023-02-21T06:06:16.489Z,8.00
2023-02-21T06:08:48.186Z,8.00
2023-02-21T06:11:16.496Z,8.10
2023-02-21T06:13:43.387Z,8.10
2023-02-21T06:16:10.110Z,8.10
2023-02-21T06:18:36.733Z,8.00
2023-02-21T06:21:03.370Z,8.00
2023-02-21T06:23:30.060Z,8.00
2023-02-21T06:25:56.725Z,8.00
2023-02-21T06:28:31.379Z,8.00
2023-02-21T06:30:58.296Z,8.00
2023-02-21T06:33:25.482Z,8.10
2023-02-21T06:35:52.075Z,8.00
2023-02-21T06:38:18.724Z,8.10
2023-02-21T06:40:45.363Z,8.00
2023-02-21T06:43:12.325Z,8.10
2023-02-21T06:45:38.943Z,8.00
2023-02-21T06:48:05.776Z,8.10
2023-02-21T06:50:32.539Z,8.00
2023-02-21T06:52:59.164Z,8.00
2023-02-21T06:55:25.978Z,8.10
2023-02-21T06:57:52.740Z,8.10
2023-02-21T07:00:19.607Z,8.10
2023-02-21T07:02:46.333Z,8.10
2023-02-21T07:05:13.360Z,8.10
2023-02-21T07:07:40.016Z,8.10
2023-02-21T07:10:06.854Z,8.10
2023-02-21T07:12:33.642Z,8.10
2023-02-21T07:15:00.560Z,8.10
2023-02-21T07:17:27.206Z,8.10
2023-02-21T07:19:57.085Z,8.10
2023-02-21T07:22:26.151Z,8.10
2023-02-21T07:24:53.931Z,8.10
2023-02-21T07:27:21.234Z,8.10
2023-02-21T07:29:48.728Z,8.10
2023-02-21T07:32:16.497Z,8.10
2023-02-21T07:34:43.946Z,8.10
2023-02-21T07:37:11.300Z,8.10
2023-02-21T07:39:38.025Z,8.10
2023-02-21T07:42:05.478Z,8.10
2023-02-21T07:44:32.256Z,8.10
2023-02-21T07:46:59.066Z,8.10
2023-02-21T07:49:25.888Z,8.10
2023-02-21T07:51:52.595Z,8.10
2023-02-21T07:54:19.448Z,8.20
2023-02-21T07:56:48.088Z,8.10
2023-02-21T07:59:16.104Z,8.10
2023-02-21T08:01:42.915Z,8.10
2023-02-21T08:04:09.702Z,8.10
2023-02-21T08:06:36.873Z,8.20
2023-02-21T08:09:04.249Z,8.10
2023-02-21T08:11:30.890Z,8.10
2023-02-21T08:13:57.488Z,8.10
2023-02-21T08:16:24.497Z,8.10
2023-02-21T08:18:51.513Z,8.20
2023-02-21T08:21:18.135Z,8.20
2023-02-21T08:23:44.782Z,8.20
2023-02-21T08:26:11.562Z,8.20
2023-02-21T08:28:38.306Z,8.20
2023-02-21T08:31:05.217Z,8.20
2023-02-21T08:33:31.837Z,8.20
2023-02-21T08:35:58.563Z,8.20
2023-02-21T08:38:25.212Z,8.20
2023-02-21T08:40:52.845Z,8.20
2023-02-21T08:43:19.570Z,8.20
2023-02-21T08:45:46.269Z,8.20
2023-02-21T08:48:13.121Z,8.20
2023-02-21T08:50:39.756Z,8.20
2023-02-21T08:53:06.377Z,8.20
2023-02-21T08:55:33.393Z,8.20
2023-02-21T08:58:00.137Z,8.20
2023-02-21T09:00:28.379Z,8.30
2023-02-21T09:02:56.439Z,8.20
2023-02-21T09:05:29.288Z,8.30
2023-02-21T09:08:01.684Z,8.20
2023-02-21T09:10:30.764Z,8.20
2023-02-21T09:12:57.460Z,8.30
2023-02-21T09:15:24.086Z,8.30
2023-02-21T09:17:50.959Z,8.30
2023-02-21T09:20:21.153Z,8.30
2023-02-21T09:22:47.917Z,8.30
2023-02-21T09:25:17.313Z,8.30
2023-02-21T09:27:44.052Z,8.30
2023-02-21T09:30:18.958Z,8.30
2023-02-21T09:32:45.652Z,8.30
2023-02-21T09:35:14.074Z,8.30
2023-02-21T09:37:42.970Z,8.40
2023-02-21T09:40:20.711Z,8.40
2023-02-21T09:42:51.091Z,8.40
2023-02-21T09:45:19.773Z,8.40
2023-02-21T09:47:50.911Z,8.40
2023-02-21T09:50:23.082Z,8.40
2023-02-21T09:52:49.953Z,8.40
2023-02-21T09:55:38.671Z,8.40
2023-02-21T09:58:17.656Z,8.40
2023-02-21T10:00:46.687Z,8.40
2023-02-21T10:03:24.009Z,8.40
2023-02-21T10:06:19.880Z,8.50
2023-02-21T10:09:03.067Z,8.50
2023-02-21T10:12:01.783Z,8.50
2023-02-21T10:15:07.541Z,8.50
2023-02-21T10:17:36.839Z,8.50
2023-02-21T10:20:11.529Z,8.50
2023-02-21T10:22:42.278Z,8.50
2023-02-21T10:25:28.779Z,8.40
2023-02-21T10:27:57.129Z,8.50
2023-02-21T10:30:32.328Z,8.50
2023-02-21T10:32:59.029Z,8.50
2023-02-21T10:35:25.839Z,8.60
2023-02-21T10:37:59.360Z,8.60
2023-02-21T10:40:41.519Z,8.60
2023-02-21T10:43:27.991Z,8.60
2023-02-21T10:46:00.074Z,8.60
2023-02-21T10:48:32.141Z,8.60
2023-02-21T10:51:09.392Z,8.60
2023-02-21T10:53:41.674Z,8.60
2023-02-21T10:56:20.102Z,8.70
2023-02-21T10:59:05.868Z,8.60
2023-02-21T11:01:44.856Z,8.60
2023-02-21T11:04:20.438Z,8.60
2023-02-21T11:06:56.191Z,8.70
2023-02-21T11:09:35.098Z,8.60
2023-02-21T11:12:19.396Z,8.60
2023-02-21T11:15:15.712Z,8.60
2023-02-21T11:17:43.430Z,8.70
2023-02-21T11:20:23.816Z,8.70
2023-02-21T11:22:51.326Z,8.70
2023-02-21T11:25:28.486Z,8.70
2023-02-21T11:28:09.569Z,8.70
2023-02-21T11:30:39.809Z,8.80
2023-02-21T11:33:07.716Z,8.70
2023-02-21T11:35:36.302Z,8.70
2023-02-21T11:38:06.508Z,8.70
2023-02-21T11:40:47.558Z,8.70
2023-02-21T11:43:29.312Z,8.70
2023-02-21T11:46:27.899Z,8.60
2023-02-21T11:49:02.261Z,8.70
2023-02-21T11:51:43.462Z,8.70
2023-02-21T11:54:10.864Z,8.70
2023-02-21T11:57:12.080Z,8.60
2023-02-21T12:00:13.042Z,8.60
2023-02-21T12:02:48.005Z,8.70
2023-02-21T12:05:32.136Z,8.70
2023-02-21T12:08:29.346Z,8.70
2023-02-21T12:11:22.975Z,8.80
2023-02-21T12:14:10.452Z,8.70
2023-02-21T12:16:43.223Z,8.70
2023-02-21T12:19:22.775Z,8.70
2023-02-21T12:22:19.550Z,8.70
2023-02-21T12:25:15.533Z,8.80
2023-02-21T12:27:55.203Z,8.80
2023-02-21T12:30:37.486Z,8.70
2023-02-21T12:33:26.159Z,8.80
2023-02-21T12:36:15.781Z,8.80
2023-02-21T12:39:03.041Z,8.80
2023-02-21T12:41:55.544Z,8.90
2023-02-21T12:44:28.407Z,8.90
2023-02-21T12:46:58.038Z,8.80
2023-02-21T12:49:46.022Z,8.90
2023-02-21T12:52:18.747Z,8.90
2023-02-21T12:55:14.082Z,8.90
2023-02-21T12:57:56.705Z,8.90
2023-02-21T13:00:32.474Z,8.80
2023-02-21T13:03:25.402Z,8.80
2023-02-21T13:06:01.418Z,8.80
2023-02-21T13:08:36.986Z,8.80
2023-02-21T13:11:27.135Z,8.90
2023-02-21T13:13:53.813Z,8.80
2023-02-21T13:16:21.170Z,8.80
2023-02-21T13:19:02.152Z,8.90
2023-02-21T13:21:40.792Z,8.80
2023-02-21T13:24:15.339Z,8.90
2023-02-21T13:27:09.314Z,9.00
2023-02-21T13:29:39.260Z,9.00
2023-02-21T13:32:13.949Z,8.90
2023-02-21T13:34:47.315Z,8.90
2023-02-21T13:37:18.294Z,8.80
2023-02-21T13:39:53.527Z,8.90
2023-02-21T13:42:23.851Z,8.90
2023-02-21T13:45:07.047Z,8.90
2023-02-21T13:47:52.629Z,8.90
2023-02-21T13:50:39.806Z,8.90
2023-02-21T13:53:09.607Z,8.90
2023-02-21T13:55:37.075Z,8.90
2023-02-21T13:58:05.206Z,8.90
2023-02-21T14:00:31.883Z,8.90
2023-02-21T14:03:08.767Z,8.90
2023-02-21T14:05:44.847Z,8.90
2023-02-21T14:08:41.036Z,8.90
2023-02-21T14:11:07.662Z,8.80
2023-02-21T14:13:54.627Z,8.90
2023-02-21T14:16:33.651Z,9.00
2023-02-21T14:19:08.340Z,8.90
2023-02-21T14:21:56.266Z,8.90
2023-02-21T14:24:26.565Z,8.90
2023-02-21T14:26:53.201Z,8.90
2023-02-21T14:29:38.893Z,8.90
2023-02-21T14:32:08.834Z,8.90
2023-02-21T14:34:46.887Z,8.90
2023-02-21T14:37:19.267Z,8.90
2023-02-21T14:39:53.621Z,8.80
2023-02-21T14:42:44.194Z,8.90
2023-02-21T14:45:10.815Z,9.00
2023-02-21T14:47:57.707Z,9.00
2023-02-21T14:50:53.590Z,9.00
2023-02-21T14:53:43.962Z,9.00
2023-02-21T14:56:22.769Z,8.90
2023-02-21T14:59:20.567Z,8.90
2023-02-21T15:02:23.817Z,8.90
2023-02-21T15:05:02.696Z,8.90
2023-02-21T15:07:55.773Z,8.90
2023-02-21T15:10:25.898Z,8.90
2023-02-21T15:12:58.168Z,8.90
2023-02-21T15:15:31.717Z,8.90
2023-02-21T15:18:06.104Z,8.90
2023-02-21T15:20:34.552Z,8.90
2023-02-21T15:23:14.824Z,8.90
2023-02-21T15:25:52.709Z,8.90
2023-02-21T15:28:22.777Z,8.90
2023-02-21T15:31:10.412Z,8.90
2023-02-21T15:33:39.818Z,8.80
2023-02-21T15:36:07.103Z,8.80
2023-02-21T15:38:52.481Z,8.80
2023-02-21T15:41:33.388Z,8.80
2023-02-21T15:44:12.877Z,8.80
2023-02-21T15:46:57.879Z,8.80
2023-02-21T15:49:38.230Z,8.80
2023-02-21T15:52:05.331Z,8.80
2023-02-21T15:54:38.460Z,8.80
2023-02-21T15:57:17.165Z,8.80
2023-02-21T15:59:43.820Z,8.70
2023-02-21T16:02:13.427Z,8.70
2023-02-21T16:04:46.302Z,8.60
2023-02-21T16:07:25.640Z,8.70
2023-02-21T16:10:03.148Z,8.70
2023-02-21T16:12:44.747Z,8.70
2023-02-21T16:15:36.207Z,8.70
2023-02-21T16:18:08.842Z,8.70
2023-02-21T16:20:43.071Z,8.70
2023-02-21T16:23:26.501Z,8.70
2023-02-21T16:25:56.206Z,8.70
2023-02-21T16:28:22.884Z,8.70
2023-02-21T16:30:49.658Z,8.60
2023-02-21T16:33:16.358Z,8.60
2023-02-21T16:35:43.317Z,8.60
2023-02-21T16:38:14.620Z,8.60
2023-02-21T16:40:41.501Z,8.60
2023-02-21T16:43:15.366Z,8.60
2023-02-21T16:45:43.753Z,8.50
2023-02-21T16:48:17.773Z,8.50
2023-02-21T16:50:46.683Z,8.50
2023-02-21T16:53:13.788Z,8.50
2023-02-21T16:55:42.166Z,8.50
2023-02-21T16:58:26.414Z,8.50
2023-02-21T17:00:55.122Z,8.50
2023-02-21T17:03:21.851Z,8.40
2023-02-21T17:05:50.347Z,8.40
2023-02-21T17:08:17.060Z,8.40
2023-02-21T17:10:44.340Z,8.40
2023-02-21T17:13:11.006Z,8.30
2023-02-21T17:15:41.104Z,8.30
2023-02-21T17:18:07.969Z,8.30
2023-02-21T17:20:36.768Z,8.40
2023-02-21T17:23:03.491Z,8.40
2023-02-21T17:25:30.432Z,8.40
2023-02-21T17:27:57.589Z,8.30
2023-02-21T17:30:25.097Z,8.30
2023-02-21T17:32:52.524Z,8.40
2023-02-21T17:35:22.508Z,8.40
2023-02-21T17:37:52.444Z,8.30
2023-02-21T17:40:23.388Z,8.30
2023-02-21T17:42:50.537Z,8.40
2023-02-21T17:45:19.670Z,8.30
2023-02-21T17:47:47.686Z,8.30
2023-02-21T17:50:20.725Z,8.40
2023-02-21T17:52:47.655Z,8.40
2023-02-21T17:55:21.619Z,8.30
2023-02-21T17:57:48.865Z,8.30
2023-02-21T18:00:26.100Z,8.30
2023-02-21T18:02:54.548Z,8.30
2023-02-21T18:05:21.938Z,8.30
2023-02-21T18:07:50.619Z,8.30
2023-02-21T18:10:23.093Z,8.30
2023-02-21T18:12:51.461Z,8.20
2023-02-21T18:15:21.542Z,8.30
2023-02-21T18:17:48.315Z,8.30
2023-02-21T18:20:16.623Z,8.20
2023-02-21T18:22:43.717Z,8.20
2023-02-21T18:25:10.454Z,8.20
2023-02-21T18:27:37.162Z,8.20
2023-02-21T18:30:04.781Z,8.20
2023-02-21T18:32:31.592Z,8.20
2023-02-21T18:34:59.811Z,8.20
2023-02-21T18:37:26.748Z,8.20
2023-02-21T18:39:54.269Z,8.20
2023-02-21T18:42:23.943Z,8.30
2023-02-21T18:44:51.949Z,8.20
2023-02-21T18:47:19.694Z,8.20
2023-02-21T18:49:47.778Z,8.30
2023-02-21T18:52:15.983Z,8.20
2023-02-21T18:54:48.866Z,8.20
2023-02-21T18:57:18.078Z,8.20
2023-02-21T18:59:44.896Z,8.20
2023-02-21T19:02:14.721Z,8.20
2023-02-21T19:04:43.273Z,8.20
2023-02-21T19:07:13.452Z,8.20
2023-02-21T19:09:40.299Z,8.20
2023-02-21T19:12:08.294Z,8.20
2023-02-21T19:14:35.163Z,8.20
2023-02-21T19:17:01.926Z,8.20
2023-02-21T19:19:32.209Z,8.20
2023-02-21T19:21:59.629Z,8.20
2023-02-21T19:24:26.722Z,8.10
2023-02-21T19:26:53.933Z,8.20
2023-02-21T19:29:21.159Z,8.10
2023-02-21T19:31:48.707Z,8.10
2023-02-21T19:34:16.500Z,8.10
2023-02-21T19:36:43.173Z,8.10
2023-02-21T19:39:10.163Z,8.10
2023-02-21T19:41:37.079Z,8.10
2023-02-21T19:44:04.618Z,8.10
2023-02-21T19:46:32.230Z,8.10
2023-02-21T19:49:02.367Z,8.00
2023-02-21T19:51:31.567Z,8.00
2023-02-21T19:53:59.037Z,8.00
2023-02-21T19:56:29.363Z,8.00
2023-02-21T19:58:56.232Z,8.00
2023-02-21T20:01:25.148Z,8.00
2023-02-21T20:03:53.889Z,7.90
2023-02-21T20:06:20.810Z,8.00
2023-02-21T20:08:48.431Z,8.00
2023-02-21T20:11:17.570Z,8.00
2023-02-21T20:13:44.727Z,8.00
2023-02-21T20:16:15.299Z,8.00
2023-02-21T20:18:42.789Z,8.00
2023-02-21T20:21:09.676Z,8.00
2023-02-21T20:23:36.548Z,8.00
2023-02-21T20:26:03.834Z,8.00
2023-02-21T20:28:30.855Z,8.00
2023-02-21T20:30:58.571Z,7.90
2023-02-21T20:33:25.357Z,7.90
2023-02-21T20:35:52.573Z,7.80
2023-02-21T20:38:19.726Z,7.80
2023-02-21T20:40:46.958Z,7.90
2023-02-21T20:43:13.871Z,7.90
2023-02-21T20:45:40.736Z,7.90
2023-02-21T20:48:11.079Z,7.90
2023-02-21T20:50:38.444Z,7.90
2023-02-21T20:53:05.747Z,7.90
2023-02-21T20:55:32.635Z,7.90
2023-02-21T20:57:59.344Z,7.90
2023-02-21T21:00:30.695Z,7.90
2023-02-21T21:02:57.813Z,7.90
2023-02-21T21:05:25.523Z,7.90
2023-02-21T21:07:55.701Z,7.80
2023-02-21T21:10:23.125Z,7.80
2023-02-21T21:12:51.354Z,7.70
2023-02-21T21:15:19.878Z,7.80
2023-02-21T21:17:47.073Z,7.70
2023-02-21T21:20:19.676Z,7.80
2023-02-21T21:22:46.964Z,7.70
2023-02-21T21:25:14.447Z,7.80
2023-02-21T21:27:42.305Z,7.70
2023-02-21T21:30:10.897Z,7.70
2023-02-21T21:32:37.629Z,7.70
2023-02-21T21:35:07.025Z,7.70
2023-02-21T21:37:35.152Z,7.70
2023-02-21T21:40:16.376Z,7.60
2023-02-21T21:42:48.919Z,7.60
2023-02-21T21:45:18.477Z,7.60
2023-02-21T21:47:46.777Z,7.60
2023-02-21T21:50:15.593Z,7.60
2023-02-21T21:52:53.352Z,7.60
2023-02-21T21:57:58.660Z,7.50
2023-02-21T22:00:27.579Z,7.50
2023-02-21T22:02:57.533Z,7.50
2023-02-21T22:05:30.294Z,7.50
2023-02-21T22:07:57.691Z,7.50
2023-02-21T22:10:25.859Z,7.50
2023-02-21T22:12:54.411Z,7.50
2023-02-21T22:15:23.933Z,7.40
2023-02-21T22:17:51.506Z,7.40
2023-02-21T22:20:28.358Z,7.40
